createdAt,value
2019-02-23T00:04:41.843Z,17.97
2019-02-23T00:09:48.163Z,17.47
2019-02-23T00:14:54.494Z,17.60
2019-02-23T00:20:02.287Z,17.17
2019-02-23T00:25:09.281Z,17.50
2019-02-23T00:30:16.532Z,16.70
2019-02-23T00:35:22.643Z,16.87
2019-02-23T00:40:29.590Z,16.67
2019-02-23T00:45:35.578Z,17.17
2019-02-23T00:50:41.608Z,19.30
2019-02-23T00:55:47.947Z,17.87
2019-02-23T01:00:56.585Z,16.87
2019-02-23T01:06:02.995Z,16.37
2019-02-23T01:11:09.195Z,15.60
2019-02-23T01:16:16.375Z,16.60
2019-02-23T01:21:22.827Z,15.63
2019-02-23T01:26:29.263Z,13.87
2019-02-23T01:31:36.407Z,13.23
2019-02-23T01:36:42.770Z,13.80
2019-02-23T01:41:49.371Z,13.33
2019-02-23T01:46:57.154Z,13.03
2019-02-23T01:52:03.488Z,14.33
2019-02-23T01:57:13.517Z,15.57
2019-02-23T02:02:21.012Z,16.07
2019-02-23T02:07:31.127Z,20.20
2019-02-23T02:12:38.854Z,17.43
2019-02-23T02:17:46.422Z,17.70
2019-02-23T02:22:53.976Z,18.57
2019-02-23T02:28:01.202Z,18.07
2019-02-23T02:33:07.763Z,18.43
2019-02-23T02:38:13.960Z,17.33
2019-02-23T02:43:21.227Z,16.63
2019-02-23T02:48:28.359Z,16.20
2019-02-23T02:53:35.519Z,15.93
2019-02-23T02:58:41.540Z,15.23
2019-02-23T03:03:49.147Z,13.33
2019-02-23T03:08:56.666Z,14.83
2019-02-23T03:14:02.704Z,12.50
2019-02-23T03:19:13.536Z,12.43
2019-02-23T03:24:21.472Z,12.73
2019-02-23T03:29:28.793Z,11.80
2019-02-23T03:34:37.019Z,10.40
2019-02-23T03:39:44.284Z,9.90
2019-02-23T03:44:51.615Z,10.17
2019-02-23T03:49:59.292Z,10.03
2019-02-23T03:55:06.699Z,8.97
2019-02-23T04:00:12.806Z,8.73
2019-02-23T04:05:19.180Z,8.37
2019-02-23T04:10:26.513Z,7.50
2019-02-23T04:15:35.086Z,8.70
2019-02-23T04:20:42.835Z,9.40
2019-02-23T04:25:50.163Z,8.50
2019-02-23T04:30:56.312Z,8.70
2019-02-23T04:36:02.678Z,9.20
2019-02-23T04:41:11.652Z,9.13
2019-02-23T04:46:18.811Z,8.80
2019-02-23T04:51:26.144Z,8.93
2019-02-23T04:56:32.449Z,9.10
2019-02-23T05:01:39.645Z,9.97
2019-02-23T05:06:47.371Z,9.17
2019-02-23T05:11:53.465Z,10.83
2019-02-23T05:17:01.166Z,10.70
2019-02-23T05:22:09.010Z,12.10
2019-02-23T05:27:15.284Z,12.87
2019-02-23T05:32:21.644Z,13.70
2019-02-23T05:37:27.989Z,15.37
2019-02-23T05:42:34.226Z,14.60
2019-02-23T05:47:43.583Z,13.97
2019-02-23T05:52:51.147Z,14.13
2019-02-23T05:57:58.685Z,13.43
2019-02-23T06:03:04.939Z,13.60
2019-02-23T06:08:12.803Z,13.33
2019-02-23T06:13:19.263Z,13.77
2019-02-23T06:18:27.448Z,12.10
2019-02-23T06:23:34.405Z,11.87
2019-02-23T06:28:41.616Z,11.93
2019-02-23T06:33:47.934Z,12.70
2019-02-23T06:38:54.163Z,12.77
2019-02-23T06:44:01.552Z,13.30
2019-02-23T06:49:08.272Z,12.60
2019-02-23T06:54:14.265Z,14.00
2019-02-23T06:59:21.691Z,13.17
2019-02-23T07:04:28.004Z,13.47
2019-02-23T07:09:34.509Z,14.27
2019-02-23T07:14:41.182Z,13.53
2019-02-23T07:19:49.002Z,13.67
2019-02-23T07:24:55.387Z,13.43
2019-02-23T07:30:01.664Z,13.23
2019-02-23T07:35:08.530Z,17.53
2019-02-23T07:40:14.498Z,13.60
2019-02-23T07:45:23.851Z,13.53
2019-02-23T07:50:31.095Z,14.17
2019-02-23T07:55:38.759Z,12.90
2019-02-23T08:00:44.886Z,12.90
2019-02-23T08:05:52.278Z,14.57
2019-02-23T08:10:59.916Z,14.10
2019-02-23T08:16:06.181Z,14.20
2019-02-23T08:21:12.220Z,14.40
2019-02-23T08:26:20.244Z,15.67
2019-02-23T08:31:26.539Z,19.23
2019-02-23T08:36:32.707Z,19.33
2019-02-23T08:41:39.500Z,15.97
2019-02-23T08:46:49.334Z,15.70
2019-02-23T08:51:58.930Z,13.43
2019-02-23T08:57:04.946Z,13.60
2019-02-23T09:02:11.366Z,15.40
2019-02-23T09:07:19.761Z,13.90
2019-02-23T09:12:25.696Z,13.07
2019-02-23T09:17:31.880Z,12.17
2019-02-23T09:22:39.464Z,12.90
2019-02-23T09:27:45.785Z,11.80
2019-02-23T09:32:51.974Z,12.00
2019-02-23T09:37:59.278Z,13.67
2019-02-23T09:43:06.602Z,12.10
2019-02-23T09:48:12.611Z,11.90
2019-02-23T09:53:19.417Z,11.40
2019-02-23T09:58:31.236Z,12.07
2019-02-23T10:03:38.827Z,11.80
2019-02-23T10:08:45.107Z,12.87
2019-02-23T10:13:51.735Z,12.70
2019-02-23T10:18:58.624Z,12.13
2019-02-23T10:24:06.486Z,13.57
2019-02-23T10:29:12.947Z,13.77
2019-02-23T10:34:19.568Z,15.77
2019-02-23T10:39:27.177Z,16.63
2019-02-23T10:44:33.507Z,14.83
2019-02-23T10:49:41.459Z,14.53
2019-02-23T10:54:48.923Z,14.47
2019-02-23T10:59:55.253Z,13.23
2019-02-23T11:05:02.847Z,13.40
2019-02-23T11:10:10.619Z,16.40
2019-02-23T11:15:19.378Z,14.30
2019-02-23T11:20:26.281Z,18.03
2019-02-23T11:25:32.587Z,21.13
2019-02-23T11:30:40.262Z,23.63
2019-02-23T11:35:47.415Z,23.13
2019-02-23T11:40:53.523Z,24.90
2019-02-23T11:46:01.383Z,26.80
2019-02-23T11:51:08.549Z,25.03
2019-02-23T11:56:15.227Z,25.27
2019-02-23T12:01:21.779Z,22.63
2019-02-23T12:06:28.105Z,19.73
2019-02-23T12:11:34.271Z,21.33
2019-02-23T12:16:42.209Z,24.67
2019-02-23T12:21:49.302Z,21.87
2019-02-23T12:26:56.483Z,23.00
2019-02-23T12:32:02.658Z,26.43
2019-02-23T12:37:10.081Z,24.07
2019-02-23T12:42:17.311Z,20.77
2019-02-23T12:47:23.507Z,22.20
2019-02-23T12:52:31.413Z,23.40
2019-02-23T12:57:39.379Z,29.60
2019-02-23T13:02:46.602Z,31.53
2019-02-23T13:07:52.671Z,30.27
2019-02-23T13:13:19.402Z,27.80
2019-02-23T13:19:09.680Z,26.40
2019-02-23T13:24:58.323Z,25.40
2019-02-23T13:30:40.721Z,22.40
2019-02-23T13:36:26.493Z,20.30
2019-02-23T13:41:45.868Z,19.57
2019-02-23T13:47:25.286Z,18.60
2019-02-23T13:53:09.923Z,16.20
2019-02-23T13:59:03.568Z,16.23
2019-02-23T14:04:53.947Z,17.20
2019-02-23T14:10:42.776Z,16.37
2019-02-23T14:16:23.071Z,16.40
2019-02-23T14:22:08.533Z,16.70
2019-02-23T14:27:46.780Z,16.73
2019-02-23T14:33:33.533Z,21.43
2019-02-23T14:39:22.580Z,12.87
2019-02-23T14:45:15.028Z,13.73
2019-02-23T14:50:47.502Z,14.97
2019-02-23T14:56:29.380Z,15.93
2019-02-23T15:01:58.771Z,16.57
2019-02-23T15:07:28.918Z,13.43
2019-02-23T15:13:27.723Z,11.10
2019-02-23T15:19:15.743Z,10.83
2019-02-23T15:25:13.163Z,15.00
2019-02-23T15:30:31.182Z,9.20
2019-02-23T15:36:12.407Z,9.80
2019-02-23T15:41:39.995Z,8.23
2019-02-23T15:47:28.478Z,9.03
2019-02-23T15:52:34.808Z,8.87
2019-02-23T15:57:42.794Z,6.77
2019-02-23T16:02:49.757Z,6.77
2019-02-23T16:07:56.762Z,7.07
2019-02-23T16:13:04.456Z,6.00
2019-02-23T16:18:11.925Z,6.70
2019-02-23T16:23:19.804Z,7.63
2019-02-23T16:28:27.556Z,7.80
2019-02-23T16:33:34.695Z,9.53
2019-02-23T16:38:41.279Z,8.50
2019-02-23T16:43:47.931Z,9.77
2019-02-23T16:48:54.296Z,8.63
2019-02-23T16:54:02.026Z,11.00
2019-02-23T16:59:08.910Z,8.63
2019-02-23T17:04:15.179Z,9.97
2019-02-23T17:09:21.766Z,10.07
2019-02-23T17:14:28.563Z,10.77
2019-02-23T17:19:34.886Z,10.90
2019-02-23T17:24:41.275Z,12.90
2019-02-23T17:29:48.286Z,13.20
2019-02-23T17:34:54.556Z,14.07
2019-02-23T17:40:02.402Z,12.23
2019-02-23T17:45:09.957Z,12.77
2019-02-23T17:50:16.702Z,14.17
2019-02-23T17:55:25.827Z,13.30
2019-02-23T18:00:32.165Z,14.20
2019-02-23T18:05:40.271Z,15.87
2019-02-23T18:10:47.888Z,14.37
2019-02-23T18:15:54.267Z,13.27
2019-02-23T18:21:02.636Z,13.47
2019-02-23T18:26:09.522Z,14.83
2019-02-23T18:31:19.092Z,14.30
2019-02-23T18:36:27.519Z,14.97
2019-02-23T18:41:33.639Z,15.10
2019-02-23T18:46:40.829Z,15.30
2019-02-23T18:51:48.776Z,28.40
2019-02-23T18:56:55.142Z,16.93
2019-02-23T19:02:01.442Z,19.10
2019-02-23T19:07:08.729Z,18.03
2019-02-23T19:12:15.137Z,16.17
2019-02-23T19:17:22.754Z,18.87
2019-02-23T19:22:29.681Z,18.00
2019-02-23T19:27:37.308Z,17.77
2019-02-23T19:32:45.175Z,17.30
2019-02-23T19:37:52.077Z,17.13
2019-02-23T19:43:00.656Z,18.17
2019-02-23T19:48:10.706Z,16.30
2019-02-23T19:53:18.696Z,16.93
2019-02-23T19:58:25.207Z,19.40
2019-02-23T20:03:31.603Z,16.97
2019-02-23T20:08:39.899Z,16.13
2019-02-23T20:13:47.806Z,16.57
2019-02-23T20:18:54.995Z,15.87
2019-02-23T20:24:01.434Z,16.47
2019-02-23T20:29:08.195Z,14.93
2019-02-23T20:34:14.525Z,14.37
2019-02-23T20:39:21.513Z,16.33
2019-02-23T20:44:28.827Z,15.90
2019-02-23T20:49:35.355Z,13.83
2019-02-23T20:54:41.756Z,15.53
2019-02-23T20:59:51.894Z,16.03
2019-02-23T21:04:59.726Z,16.53
2019-02-23T21:10:07.146Z,15.67
2019-02-23T21:15:13.756Z,17.60
2019-02-23T21:20:21.600Z,16.77
2019-02-23T21:25:28.097Z,15.73
2019-02-23T21:30:34.651Z,16.77
2019-02-23T21:35:43.304Z,18.80
2019-02-23T21:40:50.668Z,18.43
2019-02-23T21:45:57.819Z,17.80
2019-02-23T21:51:04.002Z,65.70
2019-02-23T21:56:11.432Z,19.60
2019-02-23T22:01:19.195Z,15.80
2019-02-23T22:06:26.628Z,15.60
2019-02-23T22:11:33.211Z,17.47
2019-02-23T22:16:41.285Z,16.27
2019-02-23T22:21:48.120Z,17.97
2019-02-23T22:26:54.388Z,18.47
2019-02-23T22:32:01.344Z,18.50
2019-02-23T22:37:08.633Z,19.20
2019-02-23T22:42:15.592Z,20.07
2019-02-23T22:47:21.975Z,20.03
2019-02-23T22:52:30.407Z,19.43
2019-02-23T22:57:40.561Z,19.67
2019-02-23T23:02:44.894Z,20.40
2019-02-23T23:07:51.655Z,18.63
2019-02-23T23:12:58.693Z,16.87
2019-02-23T23:18:04.757Z,17.90
2019-02-23T23:23:12.757Z,16.87
2019-02-23T23:28:20.399Z,17.37
2019-02-23T23:33:27.590Z,19.33
2019-02-23T23:38:33.901Z,18.87
2019-02-23T23:43:41.286Z,19.53
2019-02-23T23:48:48.943Z,18.77
2019-02-23T23:53:55.365Z,18.00
2019-02-23T23:59:01.909Z,17.97
